Main page
METAR-TAF:

METAR-TAF

Airports :

Aeroflex–Andover Airport

Andover, New Jersey, United States

latitude: 41-00-32N, longitude: 074-44-12W, elevation: 581 ft

Current weather observation

The report was made 45 minutes ago, at 21:54 UTC
Wind 3 mph from the South/Southeast
Temperature 43°F
Humidity 100%
Pressure 29.83 in. Hg

METAR: K12N 092154Z AUTO 16003KT 06/06 A2983 RMK AO1 SLP107 P0009 T00610056

Time: 17:39 (22:39 UTC)


TAF: missing

Weather observations and forecasts of more than 4000 airports (METAR and TAF reports).

The available stations are represented by yellow and red dots on the map.

Hover mouse over dot to see the name of the station.

Then click to see weather observations and forecasts.

To change the map : click on the green buttons with a black cross to zoom in, on the green button with a dash to zoom out, or on the green arrows for adjacent maps.


METAR-TAF: